createdAt,value
2019-01-21T00:00:12.171Z,100780.52
2019-01-21T00:02:40.518Z,100781.23
2019-01-21T00:05:08.914Z,100782.83
2019-01-21T00:07:37.301Z,100791.50
2019-01-21T00:10:07.092Z,100784.45
2019-01-21T00:12:35.448Z,100787.53
2019-01-21T00:15:06.455Z,100789.44
2019-01-21T00:17:34.824Z,100791.38
2019-01-21T00:20:04.674Z,100793.25
2019-01-21T00:22:33.042Z,100794.31
2019-01-21T00:25:01.364Z,100791.75
2019-01-21T00:27:29.781Z,100796.46
2019-01-21T00:29:58.123Z,100801.08
2019-01-21T00:32:26.481Z,100793.84
2019-01-21T00:34:54.875Z,100796.09
2019-01-21T00:37:23.297Z,100791.09
2019-01-21T00:39:51.655Z,100795.91
2019-01-21T00:42:20.014Z,100796.37
2019-01-21T00:44:48.365Z,100799.03
2019-01-21T00:47:16.871Z,100803.42
2019-01-21T00:49:45.218Z,100804.17
2019-01-21T00:52:13.665Z,100810.32
2019-01-21T00:54:42.044Z,100807.83
2019-01-21T00:57:10.924Z,100811.06
2019-01-21T00:59:39.305Z,100816.91
2019-01-21T01:02:07.655Z,100814.95
2019-01-21T01:04:35.993Z,100822.02
2019-01-21T01:07:04.453Z,100816.30
2019-01-21T01:09:32.822Z,100821.09
2019-01-21T01:12:01.204Z,100815.28
2019-01-21T01:14:29.565Z,100821.78
2019-01-21T01:16:57.959Z,100821.13
2019-01-21T01:19:26.335Z,100819.44
2019-01-21T01:21:54.768Z,100816.03
2019-01-21T01:24:23.210Z,100825.02
2019-01-21T01:26:51.557Z,100823.94
2019-01-21T01:29:19.977Z,100824.86
2019-01-21T01:31:48.394Z,100823.22
2019-01-21T01:34:16.752Z,100827.64
2019-01-21T01:36:45.125Z,100824.70
2019-01-21T01:39:13.493Z,100824.59
2019-01-21T01:41:41.910Z,100822.63
2019-01-21T01:44:10.888Z,100820.84
2019-01-21T01:46:39.280Z,100820.61
2019-01-21T01:49:07.627Z,100820.55
2019-01-21T01:51:36.082Z,100823.73
2019-01-21T01:54:04.655Z,100828.47
2019-01-21T01:56:33.050Z,100828.02
2019-01-21T01:59:01.562Z,100833.41
2019-01-21T02:01:29.909Z,100829.39
2019-01-21T02:03:58.275Z,100834.02
2019-01-21T02:06:26.653Z,100837.87
2019-01-21T02:08:54.986Z,100842.38
2019-01-21T02:11:23.475Z,100838.68
2019-01-21T02:13:52.182Z,100838.21
2019-01-21T02:16:20.673Z,100838.64
2019-01-21T02:18:48.981Z,100833.96
2019-01-21T02:21:18.904Z,100828.75
2019-01-21T02:23:51.196Z,100837.53
2019-01-21T02:26:19.912Z,100834.28
2019-01-21T02:28:54.573Z,100826.05
2019-01-21T02:31:28.352Z,100826.98
2019-01-21T02:34:01.974Z,100829.63
2019-01-21T02:36:36.239Z,100833.44
2019-01-21T02:39:06.330Z,100834.28
2019-01-21T02:41:36.213Z,100832.28
2019-01-21T02:44:10.178Z,100829.22
2019-01-21T02:46:44.999Z,100826.87
2019-01-21T02:49:18.754Z,100837.14
2019-01-21T02:51:52.457Z,100829.79
2019-01-21T02:54:28.268Z,100828.44
2019-01-21T02:57:01.665Z,100829.19
2019-01-21T02:59:35.578Z,100827.74
2019-01-21T03:02:08.397Z,100827.10
2019-01-21T03:04:45.219Z,100827.68
2019-01-21T03:07:16.580Z,100824.22
2019-01-21T03:09:49.274Z,100824.53
2019-01-21T03:12:19.255Z,100823.84
2019-01-21T03:14:52.105Z,100827.53
2019-01-21T03:17:29.147Z,100819.42
2019-01-21T03:20:03.820Z,100819.63
2019-01-21T03:22:38.683Z,100819.09
2019-01-21T03:25:11.867Z,100820.58
2019-01-21T03:27:46.027Z,100815.00
2019-01-21T03:30:17.871Z,100818.80
2019-01-21T03:32:51.586Z,100819.94
2019-01-21T03:35:25.193Z,100819.09
2019-01-21T03:37:58.224Z,100819.73
2019-01-21T03:40:32.882Z,100820.58
2019-01-21T03:43:05.992Z,100815.08
2019-01-21T03:45:38.805Z,100821.58
2019-01-21T03:48:16.647Z,100821.54
2019-01-21T03:50:49.743Z,100826.08
2019-01-21T03:53:21.248Z,100826.11
2019-01-21T03:55:53.321Z,100835.77
2019-01-21T03:58:25.050Z,100831.20
2019-01-21T04:00:57.855Z,100827.42
2019-01-21T04:03:33.591Z,100830.70
2019-01-21T04:06:06.251Z,100836.38
2019-01-21T04:08:39.320Z,100839.46
2019-01-21T04:11:12.967Z,100840.70
2019-01-21T04:13:48.886Z,100837.33
2019-01-21T04:16:19.560Z,100838.94
2019-01-21T04:18:55.238Z,100838.20
2019-01-21T04:21:28.996Z,100840.50
2019-01-21T04:24:00.926Z,100840.80
2019-01-21T04:26:33.884Z,100846.49
2019-01-21T04:29:07.690Z,100838.62
2019-01-21T04:31:40.598Z,100839.78
2019-01-21T04:34:14.490Z,100842.70
2019-01-21T04:36:47.661Z,100838.72
2019-01-21T04:39:21.472Z,100845.19
2019-01-21T04:41:54.649Z,100851.19
2019-01-21T04:44:27.555Z,100849.12
2019-01-21T04:47:01.424Z,100845.96
2019-01-21T04:49:34.171Z,100851.27
2019-01-21T04:52:06.997Z,100850.34
2019-01-21T04:54:39.697Z,100844.73
2019-01-21T04:57:16.582Z,100844.36
2019-01-21T04:59:50.477Z,100851.06
2019-01-21T05:02:25.143Z,100849.59
2019-01-21T05:04:58.996Z,100852.83
2019-01-21T05:07:33.809Z,100856.05
2019-01-21T05:10:08.710Z,100851.98
2019-01-21T05:12:39.750Z,100848.74
2019-01-21T05:15:14.557Z,100850.59
2019-01-21T05:17:47.426Z,100851.06
2019-01-21T05:20:19.278Z,100855.53
2019-01-21T05:22:52.938Z,100860.43
2019-01-21T05:25:26.679Z,100858.14
2019-01-21T05:27:58.606Z,100858.14
2019-01-21T05:30:31.516Z,100865.45
2019-01-21T05:33:07.288Z,100862.53
2019-01-21T05:35:40.265Z,100862.75
2019-01-21T05:38:12.201Z,100869.20
2019-01-21T05:40:45.978Z,100866.75
2019-01-21T05:43:20.711Z,100865.69
2019-01-21T05:45:53.561Z,100865.95
2019-01-21T05:48:27.410Z,100862.95
2019-01-21T05:51:03.433Z,100865.91
2019-01-21T05:53:40.018Z,100861.05
2019-01-21T05:56:15.679Z,100867.69
2019-01-21T05:58:48.879Z,100868.66
2019-01-21T06:01:22.138Z,100867.73
2019-01-21T06:03:54.919Z,100865.28
2019-01-21T06:06:30.580Z,100873.45
2019-01-21T06:09:07.581Z,100872.58
2019-01-21T06:11:53.584Z,100874.98
2019-01-21T06:14:38.541Z,100875.83
2019-01-21T06:17:11.674Z,100874.76
2019-01-21T06:19:45.012Z,100887.46
2019-01-21T06:25:33.721Z,100881.05
2019-01-21T06:28:06.135Z,100883.21
2019-01-21T06:30:41.963Z,100891.98
2019-01-21T06:33:16.049Z,100888.05
2019-01-21T06:35:49.870Z,100886.23
2019-01-21T06:38:22.708Z,100886.59
2019-01-21T06:40:54.558Z,100889.52
2019-01-21T06:43:25.519Z,100887.98
2019-01-21T06:45:59.118Z,100889.83
2019-01-21T06:48:30.232Z,100894.52
2019-01-21T06:51:06.623Z,100892.38
2019-01-21T06:53:41.545Z,100893.91
2019-01-21T06:56:16.282Z,100891.84
2019-01-21T06:58:50.997Z,100892.69
2019-01-21T07:01:25.076Z,100887.05
2019-01-21T07:04:01.750Z,100888.52
2019-01-21T07:06:36.802Z,100881.66
2019-01-21T07:09:10.159Z,100887.59
2019-01-21T07:11:43.355Z,100885.15
2019-01-21T07:14:19.581Z,100892.45
2019-01-21T07:16:50.706Z,100896.12
2019-01-21T07:19:24.551Z,100895.82
2019-01-21T07:22:02.466Z,100896.45
2019-01-21T07:24:36.432Z,100896.67
2019-01-21T07:27:11.135Z,100897.05
2019-01-21T07:29:42.272Z,100902.95
2019-01-21T07:32:14.857Z,100902.66
2019-01-21T07:34:50.566Z,100905.00
2019-01-21T07:37:25.255Z,100906.41
2019-01-21T07:40:09.652Z,100905.59
2019-01-21T07:42:45.442Z,100903.69
2019-01-21T07:45:19.150Z,100916.81
2019-01-21T07:47:50.805Z,100906.77
2019-01-21T07:50:24.676Z,100900.77
2019-01-21T07:52:57.305Z,100897.77
2019-01-21T07:55:30.290Z,100893.79
2019-01-21T07:58:05.059Z,100892.29
2019-01-21T08:00:38.548Z,100902.16
2019-01-21T08:03:14.177Z,100898.17
2019-01-21T08:05:45.857Z,100897.13
2019-01-21T08:08:18.712Z,100897.41
2019-01-21T08:10:52.618Z,100903.27
2019-01-21T08:13:27.381Z,100905.45
2019-01-21T08:15:58.354Z,100911.69
2019-01-21T08:18:33.078Z,100910.91
2019-01-21T08:21:07.092Z,100918.51
2019-01-21T08:23:37.374Z,100920.45
2019-01-21T08:26:11.051Z,100920.27
2019-01-21T08:28:44.614Z,100922.03
2019-01-21T08:31:17.320Z,100917.97
2019-01-21T08:33:50.864Z,100924.65
2019-01-21T08:36:22.613Z,100933.42
2019-01-21T08:38:53.542Z,100939.19
2019-01-21T08:41:28.349Z,100940.41
2019-01-21T08:44:02.152Z,100935.81
2019-01-21T08:46:33.944Z,100927.19
2019-01-21T08:49:07.212Z,100926.08
2019-01-21T08:51:43.928Z,100930.05
2019-01-21T08:54:17.114Z,100933.11
2019-01-21T08:56:50.837Z,100941.02
2019-01-21T08:59:23.755Z,100940.58
2019-01-21T09:01:57.829Z,100936.59
2019-01-21T09:04:34.765Z,100931.91
2019-01-21T09:07:08.542Z,100934.76
2019-01-21T09:09:42.293Z,100939.48
2019-01-21T09:12:14.057Z,100944.92
2019-01-21T09:14:45.665Z,100949.10
2019-01-21T09:17:20.561Z,100944.91
2019-01-21T09:19:54.193Z,100955.07
2019-01-21T09:22:28.005Z,100953.56
2019-01-21T09:25:04.276Z,100949.64
2019-01-21T09:27:38.542Z,100945.78
2019-01-21T09:30:23.451Z,100957.34
2019-01-21T09:32:59.130Z,100960.14
2019-01-21T09:35:31.693Z,100963.19
2019-01-21T09:38:06.917Z,100961.03
2019-01-21T09:40:41.614Z,100955.42
2019-01-21T09:43:13.504Z,100956.63
2019-01-21T09:45:48.259Z,100955.27
2019-01-21T09:48:16.154Z,100961.32
2019-01-21T09:50:46.118Z,100962.48
2019-01-21T09:53:14.597Z,100965.63
2019-01-21T09:55:46.861Z,100966.44
2019-01-21T09:58:15.235Z,100968.72
2019-01-21T10:00:43.790Z,100959.97
2019-01-21T10:03:12.634Z,100963.62
2019-01-21T10:05:44.901Z,100967.66
2019-01-21T10:08:15.947Z,100955.43
2019-01-21T10:10:47.025Z,100959.00
2019-01-21T10:13:20.136Z,100953.55
2019-01-21T10:15:54.779Z,100946.08
2019-01-21T10:18:28.450Z,100949.72
2019-01-21T10:21:01.461Z,100940.34
2019-01-21T10:23:34.400Z,100940.99
2019-01-21T10:26:10.241Z,100942.01
2019-01-21T10:28:43.273Z,100936.30
2019-01-21T10:31:15.613Z,100933.55
2019-01-21T10:33:51.966Z,100932.03
2019-01-21T10:36:26.681Z,100926.91
2019-01-21T10:39:02.685Z,100921.41
2019-01-21T10:41:35.666Z,100926.23
2019-01-21T10:44:11.417Z,100910.59
2019-01-21T10:46:45.257Z,100904.73
2019-01-21T10:49:19.982Z,100909.93
2019-01-21T10:51:55.732Z,100906.06
2019-01-21T10:54:29.375Z,100898.52
2019-01-21T10:57:04.161Z,100898.89
2019-01-21T10:59:38.932Z,100896.00
2019-01-21T11:02:12.750Z,100890.36
2019-01-21T11:04:44.665Z,100889.16
2019-01-21T11:07:19.655Z,100889.41
2019-01-21T11:09:54.613Z,100890.39
2019-01-21T11:12:28.137Z,100890.36
2019-01-21T11:15:01.369Z,100887.72
2019-01-21T11:17:37.015Z,100896.21
2019-01-21T11:20:13.687Z,100893.30
2019-01-21T11:22:47.083Z,100882.01
2019-01-21T11:25:19.935Z,100886.55
2019-01-21T11:27:53.739Z,100878.02
2019-01-21T11:30:29.480Z,100878.39
2019-01-21T11:33:04.195Z,100877.08
2019-01-21T11:35:39.026Z,100883.88
2019-01-21T11:38:11.831Z,100869.53
2019-01-21T11:40:44.777Z,100865.84
2019-01-21T11:43:17.439Z,100865.00
2019-01-21T11:45:52.762Z,100861.95
2019-01-21T11:48:28.557Z,100864.95
2019-01-21T11:51:03.276Z,100866.85
2019-01-21T11:53:36.179Z,100867.25
2019-01-21T11:56:07.436Z,100860.30
2019-01-21T11:58:41.318Z,100855.13
2019-01-21T12:01:14.235Z,100859.80
2019-01-21T12:03:47.045Z,100855.88
2019-01-21T12:06:16.924Z,100847.88
2019-01-21T12:08:50.675Z,100849.66
2019-01-21T12:11:22.467Z,100842.14
2019-01-21T12:13:58.342Z,100845.80
2019-01-21T12:16:32.290Z,100835.05
2019-01-21T12:19:05.137Z,100836.86
2019-01-21T12:21:38.565Z,100834.88
2019-01-21T12:24:10.853Z,100832.83
2019-01-21T12:26:44.696Z,100823.88
2019-01-21T12:29:18.667Z,100824.33
2019-01-21T12:31:50.428Z,100825.56
2019-01-21T12:34:25.175Z,100819.28
2019-01-21T12:36:55.901Z,100808.69
2019-01-21T12:39:29.868Z,100809.70
2019-01-21T12:42:05.939Z,100809.55
2019-01-21T12:44:39.600Z,100807.08
2019-01-21T12:47:13.334Z,100799.17
2019-01-21T12:49:48.079Z,100796.35
2019-01-21T12:52:18.681Z,100790.97
2019-01-21T12:54:53.441Z,100794.27
2019-01-21T12:57:25.980Z,100791.39
2019-01-21T13:00:00.785Z,100793.54
2019-01-21T13:02:32.406Z,100787.23
2019-01-21T13:05:05.230Z,100787.03
2019-01-21T13:07:38.188Z,100779.44
2019-01-21T13:10:09.608Z,100776.02
2019-01-21T13:12:42.397Z,100770.55
2019-01-21T13:15:13.577Z,100766.95
2019-01-21T13:17:47.262Z,100756.28
2019-01-21T13:20:20.145Z,100755.08
2019-01-21T13:22:53.833Z,100756.92
2019-01-21T13:25:26.798Z,100756.07
2019-01-21T13:28:02.403Z,100747.56
2019-01-21T13:30:37.078Z,100740.37
2019-01-21T13:33:11.759Z,100730.22
2019-01-21T13:35:46.394Z,100731.66
2019-01-21T13:38:22.150Z,100727.38
2019-01-21T13:40:55.876Z,100721.80
2019-01-21T13:43:30.681Z,100719.16
2019-01-21T13:46:09.242Z,100714.95
2019-01-21T13:48:43.137Z,100716.55
2019-01-21T13:51:21.851Z,100699.68
2019-01-21T13:53:57.534Z,100696.40
2019-01-21T13:56:31.258Z,100709.05
2019-01-21T13:59:04.959Z,100717.78
2019-01-21T14:01:35.781Z,100716.03
2019-01-21T14:04:10.696Z,100704.70
2019-01-21T14:06:43.753Z,100708.39
2019-01-21T14:09:17.585Z,100706.98
2019-01-21T14:11:50.453Z,100704.70
2019-01-21T14:14:23.963Z,100703.98
2019-01-21T14:16:58.589Z,100705.55
2019-01-21T14:19:31.642Z,100701.86
2019-01-21T14:22:06.492Z,100704.47
2019-01-21T14:24:42.189Z,100703.36
2019-01-21T14:27:16.007Z,100693.64
2019-01-21T14:29:47.737Z,100696.24
2019-01-21T14:32:21.665Z,100699.76
2019-01-21T14:34:57.358Z,100694.27
2019-01-21T14:37:31.349Z,100688.06
2019-01-21T14:40:05.004Z,100691.00
2019-01-21T14:42:39.733Z,100687.55
2019-01-21T14:45:13.288Z,100679.12
2019-01-21T14:47:47.968Z,100677.33
2019-01-21T14:50:21.757Z,100677.60
2019-01-21T14:52:54.754Z,100674.22
2019-01-21T14:55:27.595Z,100676.53
2019-01-21T14:58:00.639Z,100671.05
2019-01-21T15:00:34.527Z,100680.73
2019-01-21T15:03:07.831Z,100686.11
2019-01-21T15:05:41.564Z,100690.16
2019-01-21T15:08:13.928Z,100688.99
2019-01-21T15:10:45.845Z,100687.02
2019-01-21T15:13:18.504Z,100693.40
2019-01-21T15:15:51.626Z,100685.25
2019-01-21T15:18:25.407Z,100686.71
2019-01-21T15:20:58.415Z,100682.01
2019-01-21T15:23:34.233Z,100683.00
2019-01-21T15:26:08.956Z,100674.36
2019-01-21T15:28:42.786Z,100679.76
2019-01-21T15:31:23.847Z,100675.78
2019-01-21T15:33:58.812Z,100669.79
2019-01-21T15:36:34.750Z,100670.03
2019-01-21T15:39:08.259Z,100674.98
2019-01-21T15:41:42.425Z,100663.64
2019-01-21T15:44:16.579Z,100655.80
2019-01-21T15:46:48.908Z,100669.89
2019-01-21T15:49:21.953Z,100668.92
2019-01-21T15:51:55.794Z,100668.45
2019-01-21T15:54:28.812Z,100670.77
2019-01-21T15:57:01.924Z,100673.23
2019-01-21T15:59:34.991Z,100669.77
2019-01-21T16:02:08.821Z,100666.34
2019-01-21T16:04:39.914Z,100663.95
2019-01-21T16:07:13.735Z,100661.66
2019-01-21T16:09:47.597Z,100662.85
2019-01-21T16:12:23.509Z,100667.31
2019-01-21T16:14:54.611Z,100669.56
2019-01-21T16:17:29.375Z,100670.06
2019-01-21T16:20:00.848Z,100668.92
2019-01-21T16:22:34.757Z,100666.41
2019-01-21T16:25:05.386Z,100670.81
2019-01-21T16:27:37.514Z,100673.27
2019-01-21T16:30:12.317Z,100673.75
2019-01-21T16:32:41.730Z,100679.57
2019-01-21T16:35:15.476Z,100674.58
2019-01-21T16:37:48.392Z,100667.22
2019-01-21T16:40:22.318Z,100668.06
2019-01-21T16:42:50.675Z,100668.91
2019-01-21T16:45:19.248Z,100671.39
2019-01-21T16:47:47.646Z,100673.19
2019-01-21T16:50:16.025Z,100674.31
2019-01-21T16:52:44.436Z,100675.59
2019-01-21T16:55:16.175Z,100669.54
2019-01-21T16:57:44.536Z,100664.73
2019-01-21T17:00:14.563Z,100669.76
2019-01-21T17:02:42.962Z,100675.80
2019-01-21T17:05:13.154Z,100676.81
2019-01-21T17:07:41.520Z,100676.01
2019-01-21T17:10:11.539Z,100676.70
2019-01-21T17:12:40.040Z,100680.55
2019-01-21T17:15:10.828Z,100690.48
2019-01-21T17:17:39.406Z,100693.11
2019-01-21T17:20:14.496Z,100690.02
2019-01-21T17:22:42.962Z,100694.37
2019-01-21T17:25:11.986Z,100692.03
2019-01-21T17:27:40.463Z,100686.65
2019-01-21T17:30:12.796Z,100687.64
2019-01-21T17:32:41.183Z,100676.92
2019-01-21T17:35:11.663Z,100670.83
2019-01-21T17:37:40.050Z,100668.97
2019-01-21T17:40:13.191Z,100667.80
2019-01-21T17:42:41.619Z,100672.08
2019-01-21T17:45:13.462Z,100666.97
2019-01-21T17:47:42.035Z,100658.38
2019-01-21T17:50:11.906Z,100654.44
2019-01-21T17:52:40.237Z,100657.66
2019-01-21T17:55:09.743Z,100661.64
2019-01-21T17:57:38.127Z,100653.97
2019-01-21T18:00:10.924Z,100648.96
2019-01-21T18:02:39.267Z,100642.23
2019-01-21T18:05:07.824Z,100640.52
2019-01-21T18:07:36.170Z,100640.89
2019-01-21T18:10:08.503Z,100638.19
2019-01-21T18:12:36.889Z,100639.65
2019-01-21T18:15:07.226Z,100648.05
2019-01-21T18:17:35.575Z,100647.09
2019-01-21T18:20:08.729Z,100647.13
2019-01-21T18:22:37.049Z,100642.97
2019-01-21T18:25:08.241Z,100641.87
2019-01-21T18:27:36.613Z,100630.14
2019-01-21T18:30:09.013Z,100623.14
2019-01-21T18:32:37.358Z,100623.28
2019-01-21T18:35:06.959Z,100625.91
2019-01-21T18:37:35.306Z,100622.88
2019-01-21T18:40:06.860Z,100627.30
2019-01-21T18:42:35.277Z,100619.52
2019-01-21T18:45:06.281Z,100623.57
2019-01-21T18:47:34.606Z,100610.36
2019-01-21T18:50:04.038Z,100618.94
2019-01-21T18:52:32.386Z,100624.45
2019-01-21T18:55:00.755Z,100630.25
2019-01-21T18:57:29.209Z,100631.98
2019-01-21T18:59:57.575Z,100633.66
2019-01-21T19:02:26.119Z,100627.15
2019-01-21T19:04:54.460Z,100636.36
2019-01-21T19:07:22.830Z,100635.95
2019-01-21T19:09:51.187Z,100649.42
2019-01-21T19:12:19.578Z,100646.80
2019-01-21T19:14:47.965Z,100643.80
2019-01-21T19:17:16.336Z,100644.80
2019-01-21T19:19:44.677Z,100651.08
2019-01-21T19:22:13.506Z,100655.67
2019-01-21T19:24:42.965Z,100659.36
2019-01-21T19:27:11.762Z,100651.73
2019-01-21T19:29:40.184Z,100652.50
2019-01-21T19:32:08.529Z,100656.19
2019-01-21T19:34:36.931Z,100651.91
2019-01-21T19:37:05.483Z,100651.19
2019-01-21T19:39:34.054Z,100645.41
2019-01-21T19:42:02.845Z,100637.11
2019-01-21T19:44:31.214Z,100643.68
2019-01-21T19:46:59.664Z,100642.61
2019-01-21T19:49:28.054Z,100645.04
2019-01-21T19:52:00.209Z,100652.28
2019-01-21T19:54:26.837Z,100645.79
2019-01-21T19:56:55.224Z,100646.33
2019-01-21T19:59:23.565Z,100642.81
2019-01-21T20:01:51.893Z,100647.51
2019-01-21T20:04:20.308Z,100640.90
2019-01-21T20:06:48.680Z,100639.14
2019-01-21T20:09:17.078Z,100633.32
2019-01-21T20:11:45.445Z,100633.53
2019-01-21T20:14:13.923Z,100637.24
2019-01-21T20:16:42.302Z,100632.41
2019-01-21T20:19:11.080Z,100629.96
2019-01-21T20:21:39.511Z,100625.84
2019-01-21T20:24:07.918Z,100619.75
2019-01-21T20:26:36.349Z,100612.25
2019-01-21T20:29:04.753Z,100611.91
2019-01-21T20:31:33.155Z,100611.67
2019-01-21T20:34:01.490Z,100608.65
2019-01-21T20:36:29.905Z,100608.86
2019-01-21T20:38:58.305Z,100602.05
2019-01-21T20:41:27.183Z,100601.42
2019-01-21T20:43:55.634Z,100600.48
2019-01-21T20:46:24.044Z,100594.13
2019-01-21T20:48:52.441Z,100588.98
2019-01-21T20:51:20.777Z,100593.55
2019-01-21T20:53:49.119Z,100593.31
2019-01-21T20:56:17.498Z,100587.27
2019-01-21T20:58:47.430Z,100592.21
2019-01-21T21:01:16.255Z,100586.03
2019-01-21T21:03:44.861Z,100582.44
2019-01-21T21:06:13.658Z,100578.92
2019-01-21T21:08:42.073Z,100583.86
2019-01-21T21:11:10.974Z,100583.77
2019-01-21T21:13:39.379Z,100583.95
2019-01-21T21:16:07.786Z,100585.82
2019-01-21T21:18:36.162Z,100589.66
2019-01-21T21:21:04.581Z,100587.98
2019-01-21T21:23:32.942Z,100584.61
2019-01-21T21:26:01.314Z,100588.63
2019-01-21T21:28:31.133Z,100587.92
2019-01-21T21:30:59.667Z,100584.21
2019-01-21T21:33:28.188Z,100587.63
2019-01-21T21:35:56.699Z,100580.25
2019-01-21T21:38:25.136Z,100572.87
2019-01-21T21:40:53.710Z,100569.16
2019-01-21T21:43:22.332Z,100567.78
2019-01-21T21:45:50.936Z,100579.35
2019-01-21T21:48:19.376Z,100572.41
2019-01-21T21:50:47.907Z,100572.63
2019-01-21T21:53:16.429Z,100574.08
2019-01-21T21:55:44.938Z,100571.63
2019-01-21T21:58:13.496Z,100564.42
2019-01-21T22:00:42.019Z,100570.05
2019-01-21T22:03:10.898Z,100569.88
2019-01-21T22:05:40.257Z,100564.46
2019-01-21T22:08:09.798Z,100562.41
2019-01-21T22:10:38.210Z,100559.95
2019-01-21T22:13:06.563Z,100562.41
2019-01-21T22:15:35.058Z,100557.53
2019-01-21T22:18:04.778Z,100555.28
2019-01-21T22:20:33.347Z,100550.51
2019-01-21T22:23:02.119Z,100552.86
2019-01-21T22:25:30.481Z,100555.20
2019-01-21T22:27:58.841Z,100544.72
2019-01-21T22:30:27.413Z,100550.61
2019-01-21T22:32:55.836Z,100552.73
2019-01-21T22:35:24.711Z,100549.59
2019-01-21T22:37:53.058Z,100549.48
2019-01-21T22:40:21.943Z,100552.78
2019-01-21T22:42:50.496Z,100543.51
2019-01-21T22:45:19.852Z,100542.00
2019-01-21T22:47:48.418Z,100544.44
2019-01-21T22:50:17.928Z,100551.75
2019-01-21T22:52:46.582Z,100548.45
2019-01-21T22:55:15.540Z,100547.22
2019-01-21T22:57:44.144Z,100548.81
2019-01-21T23:00:16.000Z,100558.28
2019-01-21T23:02:44.955Z,100559.03
2019-01-21T23:05:13.875Z,100557.99
2019-01-21T23:07:42.301Z,100547.22
2019-01-21T23:10:11.822Z,100548.06
2019-01-21T23:12:40.299Z,100545.36
2019-01-21T23:15:09.472Z,100545.05
2019-01-21T23:17:37.813Z,100541.22
2019-01-21T23:20:09.458Z,100536.46
2019-01-21T23:22:37.821Z,100531.01
2019-01-21T23:25:06.888Z,100529.25
2019-01-21T23:27:35.241Z,100525.50
2019-01-21T23:30:08.257Z,100529.70
2019-01-21T23:32:36.946Z,100531.33
2019-01-21T23:35:06.152Z,100529.53
2019-01-21T23:37:34.494Z,100529.55
2019-01-21T23:40:04.274Z,100531.78
2019-01-21T23:42:32.661Z,100531.97
2019-01-21T23:45:01.005Z,100526.45
2019-01-21T23:47:29.413Z,100522.98
2019-01-21T23:49:57.782Z,100517.55
2019-01-21T23:52:26.118Z,100518.28
2019-01-21T23:54:54.878Z,100513.89
2019-01-21T23:57:23.217Z,100501.56
2019-01-21T23:59:51.690Z,100499.97
